Main page
METAR-TAF:

METAR-TAF

Airports :

Aigen im Ennstal, Austria

latitude: 47-32N, longitude: 014-08E, elevation: 638 m

METAR: missing

Time: 20:07 (19:07 UTC)

Forecast

The report was made 1 hour and 52 minutes ago, at 17:15 UTC
Forecast valid from 13 at 18 UTC to 14 at 03 UTC
Wind 5 kt from variable directions
Visibility 10 km or more
Scattered clouds at a height of 3000 ft
Broken clouds at a height of 6000 ft
Temporary
from 13 at 18 UTC to 13 at 22 UTC
Wind 10 kt from the West/Southwest with gusts up to 20 kt
Scattered clouds at a height of 2500 ft
Broken clouds at a height of 4000 ft
Becoming
from 13 at 22 UTC to 13 at 24 UTC
Wind 3 kt from variable directions
Scattered clouds at a height of 4000 ft

TAF: LOXA 131715Z 1318/1403 VRB05KT 9999 SCT030 BKN060 TEMPO 1318/1322 24010G20KT SCT025 BKN040 BECMG 1322/1324 VRB03KT SCT040

Weather observations and forecasts of more than 4000 airports (METAR and TAF reports).

The available stations are represented by yellow and red dots on the map.

Hover mouse over dot to see the name of the station.

Then click to see weather observations and forecasts.

To change the map : click on the green buttons with a black cross to zoom in, on the green button with a dash to zoom out, or on the green arrows for adjacent maps.


METAR-TAF: